Home > Products > Valid Products > MTR

000
SAUS41 KLWX 300201
MTRRSP
METAR KRSP 300154Z AUTO 10SM BKN033 OVC041 M02/M09 RMK AO2 SLPNO
T10221089 $





000
SAUS41 KLWX 300200
MTRRYT
METAR KRYT 300153Z AUTO 00000KT 10SM OVC036 M02/M06 A2992 RMK AO2
SLP152 T10171056 $





000
SAUS41 KLWX 300159 COR
MTRDMH
METAR KDMH 300154Z AUTO 01/M03 A3001 RMK AO1 SLP163 T00111033





000
SAUS41 KLWX 300155
MTRNAK
METAR KNAK 300154Z AUTO 17012G16KT 10SM OVC070 02/M02 A3002 RMK AO2
SLP167 T00171017





000
SAUS41 KLWX 300143
MTRRSP
SPECI KRSP 300136Z AUTO 10SM BKN033 OVC039 M03/M09 RMK AO2 $





000
SAUS41 KLWX 300101
MTRRSP
METAR KRSP 300054Z AUTO 10SM OVC027 M03/M08 RMK AO2 SLPNO T10331083
$





000
SAUS41 KLWX 300101 COR
MTRDMH
METAR KDMH 300054Z AUTO 01/M03 A3005 RMK AO1 SLP175 T00061033





000
SAUS41 KLWX 300100
MTRRYT
METAR KRYT 300053Z AUTO 00000KT 10SM OVC036 M02/M06 A2995 RMK AO2
SLP164 T10221061 $





000
SAUS41 KLWX 300055
MTRNAK
METAR KNAK 300054Z AUTO 16010KT 10SM OVC055 01/M04 A3005 RMK AO2
SLP178 T00111039





000
SAUS41 KLWX 300001
MTRRSP
METAR KRSP 292354Z AUTO 10SM OVC029 M04/M08 RMK AO2 SNB25E37 SLPNO
P0000 60000 T10391078 11039 21056 $





000
SAUS41 KLWX 300000
MTRRYT
METAR KRYT 292353Z AUTO 00000KT 10SM OVC038 M02/M07 A2997 RMK AO2
SNB32E47 SLP174 P0000 60004 T10221067 11017 21033 56017 $





000
SAUS41 KLWX 292359 COR
MTRDMH
METAR KDMH 292354Z AUTO 00/M03 A3007 RMK AO1 SLP183 60004 T00001033
10011 21006 58017





000
SAUS41 KLWX 292358 COR
MTRNAK
METAR KNAK 292354Z AUTO 15011KT 10SM OVC060 01/M03 A3007 RMK AO2
RAB07E30UPB27E29FZRAE07 SLP186 P0002 60005 I1000 I6001 T00061033
10011 20000 58016





000
SAUS41 KLWX 292356 COR
MTRNAK
METAR KNAK 292354Z AUTO 15011KT 10SM OVC060 01/M03 A3007 RMK AO2
RAB07E30UPB27E29FZRAE07 SLP186 P0002 60005 I1000 I6001 T00061033
10011 20000 58016





000
SAUS41 KLWX 292314
MTRNAK
SPECI KNAK 292313Z AUTO 14010KT 6SM RA SCT046 OVC065 01/M03 A3010
RMK AO2 RAB07FZRAE07 P0002 I1000 T00061028





000
SAUS41 KLWX 292301
MTRRSP
METAR KRSP 292254Z AUTO 8SM OVC031 M04/M08 RMK AO2 UPE2156 SLPNO
P0000 T10441078 $





000
SAUS41 KLWX 292300
MTRRYT
METAR KRYT 292253Z AUTO VRB03KT 10SM OVC038 M02/M07 A2999 RMK AO2
UPB2152E2157SNE2152 SLP179 P0000 T10221067 $





000
SAUS41 KLWX 292259 COR
MTRDMH
METAR KDMH 292254Z AUTO 00/M04 A3011 RMK AO1 SLP194 P0004 T00001039





000
SAUS41 KLWX 292258 COR
MTRNAK
METAR KNAK 292254Z AUTO 15007KT 6SM -FZRA BKN044 OVC055 01/M03 A3011
RMK AO2 UPB15E19RAB31E41FZRAB41SNB19E31 SLP197 P0003 I1001 T00061033





000
SAUS41 KLWX 292256 COR
MTRNAK
METAR KNAK 292254Z AUTO 15007KT 6SM -FZRA BKN044 OVC055 01/M03 A3011
RMK AO2 UPB15E19RAB31E41FZRAB41SNB19E31 SLP197 P0003 I1001 T00061033





000
SAUS41 KLWX 292248
MTRNAK
SPECI KNAK 292247Z AUTO 16007KT 5SM -FZRA BKN046 OVC050 01/M04 A3011
RMK AO2 UPB15E19RAB31E41FZRAB41SNB19E31 P0003 I1001 T00061039





000
SAUS41 KLWX 292208
MTRRSP
SPECI KRSP 292207Z AUTO 6SM BR FEW006 BKN025 OVC037 M05/M07 RMK AO2
UPE2156 P0000 $





000
SAUS41 KLWX 292201
MTRRSP
METAR KRSP 292154Z AUTO 6SM UP BR FEW006 SCT021 OVC037 M06/M07 RMK
AO2 UPB47SNE47 SLPNO P0000 T10561072 $





000
SAUS41 KLWX 292159
MTRRYT
SPECI KRYT 292153Z AUTO VRB03KT 5SM UP SCT016 OVC037 M03/M06 A3000
RMK AO2 UPB52SNE52 P0000 $





000
SAUS41 KLWX 292159 COR
MTRDMH
METAR KDMH 292154Z AUTO 01/M07 A3011 RMK AO1 SLP195 T00111072





000
SAUS41 KLWX 292155
MTRNAK
METAR KNAK 292154Z AUTO 17008KT 10SM OVC075 01/M07 A3011 RMK AO2
RAB37E46 SLP199 P0000 T00111072





000
SAUS41 KLWX 292152
MTRRSP
SPECI KRSP 292145Z AUTO 3SM -SN BR FEW006 BKN013 OVC037 M06/M07 RMK
AO2 P0000 $





000
SAUS41 KLWX 292152
MTRRSP
SPECI KRSP 292145Z AUTO 3SM -SN BR FEW006 BKN013 OVC037 M06/M07 RMK
AO2 P0000 $





000
SAUS41 KLWX 292118
MTRRYT
SPECI KRYT 292111Z AUTO VRB04KT 1/2SM SN VV017 M03/M07 A3003 RMK AO2
P0001 $





000
SAUS41 KLWX 292112
MTRRSP
SPECI KRSP 292105Z AUTO 1/4SM +SN BKN011 BKN024 OVC031 M06/M08 RMK
AO2 P0000 $





000
SAUS41 KLWX 292105
MTRRYT
SPECI KRYT 292058Z AUTO 23005KT 1 3/4SM -SN BKN023 OVC038 M02/M09
A3002 RMK AO2 P0000 $





000
SAUS41 KLWX 292101
MTRRSP
METAR KRSP 292054Z AUTO 3/4SM -SN BKN017 OVC033 M05/M10 RMK AO2
UPE16SNB30 SLPNO P0000 60000 T10501100 $





000
SAUS41 KLWX 292059 COR
MTRDMH
METAR KDMH 292054Z AUTO 01/M08 A3012 RMK AO1 SLP200 T00111083 56032





000
SAUS41 KLWX 292055
MTRNAK
METAR KNAK 292054Z AUTO 16012KT 10SM OVC080 01/M07 A3012 RMK AO2
SLP202 T00111067 56036





000
SAUS41 KLWX 292048
MTRRSP
SPECI KRSP 292041Z AUTO 2SM -SN SCT028 BKN034 OVC041 M04/M11 RMK AO2
UPE16SNB30 P0000 $





000
SAUS41 KLWX 292001
MTRRSP
METAR KRSP 291954Z AUTO 10SM UP OVC047 M04/M13 RMK AO2 UPB40 SLPNO
P0000 T10391128 $





000
SAUS41 KLWX 292000
MTRRYT
METAR KRYT 291953Z AUTO 21006KT 7SM UP BKN050 OVC060 M02/M12 A3004
RMK AO2 UPB44 SLP194 P0000 T10171117 $





000
SAUS41 KLWX 291959 COR
MTRDMH
METAR KDMH 291954Z AUTO 01/M09 A3015 RMK AO1 SLP209 T00111094





000
SAUS41 KLWX 291955
MTRNAK
METAR KNAK 291954Z AUTO 15010KT 10SM OVC095 01/M06 A3016 RMK AO2
SLP214 T00061061





000
SAUS41 KLWX 291901
MTRRSP
METAR KRSP 291854Z AUTO 10SM OVC060 M04/M14 RMK AO2 SLPNO T10391139
$





000
SAUS41 KLWX 291900
MTRRYT
METAR KRYT 291853Z AUTO 01003KT 10SM OVC070 M02/M13 A3005 RMK AO2
PRESFR SLP196 T10171133 $





000
SAUS41 KLWX 291859 COR
MTRDMH
METAR KDMH 291854Z AUTO 01/M12 A3017 RMK AO1 SLP215 T00061117





000
SAUS41 KLWX 291855
MTRNAK
METAR KNAK 291854Z AUTO 16011G18KT 10SM OVC110 01/M08 A3018 RMK AO2
SLP221 T00061083





000
SAUS41 KLWX 291801
MTRRSP
METAR KRSP 291754Z AUTO 10SM OVC070 M04/M16 RMK AO2 SLPNO T10441156
11039 21056 $





000
SAUS41 KLWX 291800
MTRRYT
METAR KRYT 291753Z AUTO VRB04KT 10SM OVC080 M02/M15 A3010 RMK AO2
SLP216 T10221150 11017 21100 58037 $





000
SAUS41 KLWX 291759 COR
MTRDMH
METAR KDMH 291754Z AUTO 00/M11 A3022 RMK AO1 SLP232 T00001106 10000
21039 58030





000
SAUS41 KLWX 291755
MTRNAK
METAR KNAK 291754Z AUTO 17008KT 10SM BKN120 01/M09 A3023 RMK AO2
SLP238 T00061094 10006 21056 58030





000
SAUS41 KLWX 291701
MTRRSP
METAR KRSP 291654Z AUTO 10SM OVC080 M04/M16 RMK AO2 SLPNO T10441161
$





000
SAUS41 KLWX 291700
MTRRYT
METAR KRYT 291653Z AUTO VRB04KT 10SM OVC090 M02/M16 A3015 RMK AO2
SLP231 T10221156 $





000
SAUS41 KLWX 291659 COR
MTRDMH
METAR KDMH 291654Z AUTO M01/M11 A3026 RMK AO1 SLP247 T10061106





000
SAUS41 KLWX 291656
MTRNAK
METAR KNAK 291654Z AUTO 14011KT 10SM CLR 00/M10 A3026 RMK AO2 SLP250
T00001100





000
SAUS41 KLWX 291601
MTRRSP
METAR KRSP 291554Z AUTO 10SM OVC100 M04/M17 RMK AO2 SLPNO T10441167
$





000
SAUS41 KLWX 291600
MTRRYT
METAR KRYT 291553Z AUTO 00000KT 10SM BKN110 M02/M17 A3018 RMK AO2
SLP240 T10221167 $





000
SAUS41 KLWX 291559 COR
MTRDMH
METAR KDMH 291554Z AUTO M01/M12 A3030 RMK AO1 SLP259 T10111117





000
SAUS41 KLWX 291555
MTRNAK
METAR KNAK 291554Z AUTO 13009KT 10SM CLR M01/M11 A3030 RMK AO2
SLP262 T10111106





000
SAUS41 KLWX 291501
MTRRSP
METAR KRSP 291454Z AUTO 10SM CLR M04/M17 RMK AO2 SLPNO T10441172 $





000
SAUS41 KLWX 291500
MTRRYT
METAR KRYT 291453Z AUTO 00000KT 10SM CLR M03/M14 A3022 RMK AO2
SLP254 T10331139 56015 $





000
SAUS41 KLWX 291459 COR
MTRDMH
METAR KDMH 291454Z AUTO M02/M13 A3031 RMK AO1 SLP262 T10171133 56013





000
SAUS41 KLWX 291455
MTRNAK
METAR KNAK 291454Z AUTO 12007KT 10SM CLR M01/M10 A3032 RMK AO2
SLP268 T10111100 56010





000
SAUS41 KLWX 291402 COR
MTRDMH
METAR KDMH 291354Z AUTO M02/M14 A3032 RMK AO1 SLP267 T10221139





000
SAUS41 KLWX 291401
MTRRSP
METAR KRSP 291354Z AUTO 10SM CLR M05/M17 RMK AO2 SLPNO T10501172 $





000
SAUS41 KLWX 291400
MTRRYT
METAR KRYT 291353Z AUTO 00000KT 10SM CLR M07/M13 A3023 RMK AO2
SLP260 T10671133 $





000
SAUS41 KLWX 291355
MTRNAK
METAR KNAK 291354Z AUTO 10003KT 10SM CLR M02/M11 A3032 RMK AO2
SLP268 T10221106





000
SAUS41 KLWX 291301
MTRRSP
METAR KRSP 291254Z AUTO 10SM CLR M06/M18 RMK AO2 SLPNO T10561178 $





000
SAUS41 KLWX 291300
MTRRYT
METAR KRYT 291253Z AUTO 00000KT 10SM CLR M09/M14 A3022 RMK AO2
SLP259 T10891144 $





000
SAUS41 KLWX 291259 COR
MTRDMH
METAR KDMH 291254Z AUTO M03/M13 A3033 RMK AO1 SLP268 T10281133





000
SAUS41 KLWX 291255
MTRNAK
METAR KNAK 291254Z AUTO 00000KT 10SM CLR M04/M09 A3034 RMK AO2
SLP276 T10391094





000
SAUS41 KLWX 291201
MTRRSP
METAR KRSP 291154Z AUTO 10SM CLR M05/M18 RMK AO2 SLPNO 70007
T10501183 11039 21072 $





000
SAUS41 KLWX 291200
MTRRYT
METAR KRYT 291153Z AUTO 23003KT 10SM CLR M10/M15 A3026 RMK AO2
SLP272 T11001150 11067 21106 55007 $





000
SAUS41 KLWX 291159 COR
MTRDMH
METAR KDMH 291154Z AUTO M04/M13 A3034 RMK AO1 SLP275 T10391133 11022
21044 53005





000
SAUS41 KLWX 291155
MTRNAK
METAR KNAK 291154Z AUTO 00000KT 10SM CLR M06/M11 A3035 RMK AO2
SLP278 T10561111 11022 21056 53004





000
SAUS41 KLWX 291101
MTRRSP
METAR KRSP 291054Z AUTO 10SM CLR M04/M20 RMK AO2 SLPNO T10391200 $





000
SAUS41 KLWX 291100
MTRRYT
METAR KRYT 291053Z AUTO 00000KT 10SM CLR M09/M15 A3026 RMK AO2
SLP272 T10891150 $





000
SAUS41 KLWX 291059 COR
MTRDMH
METAR KDMH 291054Z AUTO M03/M14 A3033 RMK AO1 SLP270 T10331144





000
SAUS41 KLWX 291055
MTRNAK
METAR KNAK 291054Z AUTO 28003KT 10SM CLR M05/M13 A3034 RMK AO2
SLP275 T10501133





000
SAUS41 KLWX 291001
MTRRSP
METAR KRSP 290954Z AUTO 10SM CLR M05/M20 RMK AO2 SLPNO T10501200 $





000
SAUS41 KLWX 291000
MTRRYT
METAR KRYT 290953Z AUTO 00000KT 10SM CLR M08/M15 A3026 RMK AO2
SLP269 T10831150 $





000
SAUS41 KLWX 290959 COR
MTRDMH
METAR KDMH 290954Z AUTO M03/M15 A3032 RMK AO1 SLP267 T10331150





000
SAUS41 KLWX 290955
MTRNAK
METAR KNAK 290954Z AUTO 00000KT 10SM CLR M05/M13 A3032 RMK AO2
SLP270 T10501128





000
SAUS41 KLWX 290901
MTRRSP
METAR KRSP 290854Z AUTO 10SM CLR M06/M18 RMK AO2 SLPNO T10611178 $





000
SAUS41 KLWX 290900
MTRRYT
METAR KRYT 290853Z AUTO 00000KT 10SM CLR M08/M15 A3028 RMK AO2
SLP276 T10781150 55000 $





000
SAUS41 KLWX 290859 COR
MTRDMH
METAR KDMH 290854Z AUTO M03/M15 A3033 RMK AO1 SLP270 T10331150 52003





000
SAUS41 KLWX 290855
MTRNAK
METAR KNAK 290854Z AUTO 00000KT 10SM CLR M04/M14 A3033 RMK AO2
SLP273 T10441139 50002





000
SAUS41 KLWX 290801
MTRRSP
METAR KRSP 290754Z AUTO 10SM CLR M07/M18 RMK AO2 SLPNO T10671183 $





000
SAUS41 KLWX 290800
MTRRYT
METAR KRYT 290753Z AUTO 00000KT 10SM CLR M08/M14 A3027 RMK AO2
SLP273 T10831144 $





000
SAUS41 KLWX 290759 COR
MTRDMH
METAR KDMH 290754Z AUTO M03/M14 A3033 RMK AO1 SLP269 T10331144





000
SAUS41 KLWX 290755
MTRNAK
METAR KNAK 290754Z AUTO 30004KT 10SM CLR M03/M13 A3033 RMK AO2
SLP274 T10331133





000
SAUS41 KLWX 290701
MTRRSP
METAR KRSP 290654Z AUTO 10SM CLR M07/M18 RMK AO2 SLPNO T10671178 $





000
SAUS41 KLWX 290700
MTRRYT
METAR KRYT 290653Z AUTO 00000KT 10SM CLR M08/M15 A3028 RMK AO2
SLP276 T10781150 $





000
SAUS41 KLWX 290659 COR
MTRDMH
METAR KDMH 290654Z AUTO M03/M14 A3032 RMK AO1 SLP268 T10331144





000
SAUS41 KLWX 290655
MTRNAK
METAR KNAK 290654Z AUTO 29004KT 10SM CLR M03/M13 A3033 RMK AO2
SLP272 T10331133





000
SAUS41 KLWX 290601
MTRRSP
METAR KRSP 290554Z AUTO 10SM CLR M07/M17 RMK AO2 SLPNO T10671172
11061 21083 $





000
SAUS41 KLWX 290600
MTRRYT
METAR KRYT 290553Z AUTO 00000KT 10SM CLR M07/M15 A3028 RMK AO2
SLP276 T10671150 11022 21078 51002 $





000
SAUS41 KLWX 290559 COR
MTRDMH
METAR KDMH 290554Z AUTO M02/M16 A3032 RMK AO1 SLP267 T10221156 10000
21022 50002





000
SAUS41 KLWX 290556
MTRNAK
METAR KNAK 290554Z AUTO 31004KT 10SM CLR M02/M13 A3033 RMK AO2
SLP271 T10221128 10000 21028 50003





000
SAUS41 KLWX 290501
MTRRSP
METAR KRSP 290454Z AUTO 10SM CLR M08/M16 RMK AO2 SLPNO T10781161
410331117 $





000
SAUS41 KLWX 290500
MTRRYT
METAR KRYT 290453Z AUTO 00000KT 10SM CLR M07/M15 A3028 RMK AO2
SLP277 T10671150 410111089 $





000
SAUS41 KLWX 290459 COR
MTRDMH
METAR KDMH 290454Z AUTO M02/M15 A3033 RMK AO1 SLP270 T10221150
400221056





000
SAUS41 KLWX 290455
MTRNAK
METAR KNAK 290454Z AUTO 30006KT 10SM CLR M02/M13 A3033 RMK AO2
SLP273 T10171133 400221056





000
SAUS41 KLWX 290401
MTRRSP
METAR KRSP 290354Z AUTO 10SM CLR M07/M16 RMK AO2 SLPNO T10721161 $





000
SAUS41 KLWX 290400
MTRRYT
METAR KRYT 290353Z AUTO VRB04KT 10SM CLR M05/M16 A3029 RMK AO2
SLP279 T10501156 $





000
SAUS41 KLWX 290359 COR
MTRDMH
METAR KDMH 290354Z AUTO M02/M15 A3033 RMK AO1 SLP269 T10171150





000
SAUS41 KLWX 290355
MTRNAK
METAR KNAK 290354Z AUTO 31006KT 10SM CLR M01/M13 A3033 RMK AO2
SLP274 T10111133





000
SAUS41 KLWX 290301
MTRRSP
METAR KRSP 290254Z AUTO 10SM CLR M07/M16 RMK AO2 SLPNO T10721156 $





000
SAUS41 KLWX 290300
MTRRYT
METAR KRYT 290253Z AUTO 00000KT 10SM CLR M04/M16 A3028 RMK AO2
SLP276 T10441156 51010 $





000
SAUS41 KLWX 290259 COR
MTRDMH
METAR KDMH 290254Z AUTO M01/M16 A3032 RMK AO1 SLP265 T10111156 51011





000
SAUS41 KLWX 290255
MTRNAK
METAR KNAK 290254Z AUTO 31007KT 10SM CLR M01/M13 A3032 RMK AO2
SLP268 T10111133 51012





000
SAUS41 KLWX 290201
MTRRSP
METAR KRSP 290154Z AUTO 10SM CLR M07/M16 RMK AO2 SLPNO T10721156 $





000
SAUS41 KLWX 290200
MTRRYT
METAR KRYT 290153Z AUTO VRB04KT 10SM CLR M04/M16 A3027 RMK AO2
SLP276 T10391156 $





000
SAUS41 KLWX 290159 COR
MTRDMH
METAR KDMH 290154Z AUTO M01/M16 A3031 RMK AO1 SLP264 T10111156





000
SAUS41 KLWX 290155
MTRNAK
METAR KNAK 290154Z AUTO 30007KT 10SM CLR M01/M13 A3031 RMK AO2
SLP266 T10061133





000
SAUS41 KLWX 290101
MTRRSP
METAR KRSP 290054Z AUTO 10SM CLR M07/M16 RMK AO2 SLPNO T10721156 $





000
SAUS41 KLWX 290101
MTRRSP
METAR KRSP 290054Z AUTO 10SM CLR M07/M16 RMK AO2 SLPNO T10721156 $





000
SAUS41 KLWX 290100
MTRRYT
METAR KRYT 290053Z AUTO 00000KT 10SM CLR M04/M15 A3026 RMK AO2
SLP271 T10441150 $





000
SAUS41 KLWX 290100
MTRRYT
METAR KRYT 290053Z AUTO 00000KT 10SM CLR M04/M15 A3026 RMK AO2
SLP271 T10441150 $





000
SAUS41 KLWX 290059 COR
MTRDMH
METAR KDMH 290054Z AUTO M01/M15 A3030 RMK AO1 SLP260 T10061150





000
SAUS41 KLWX 290059 COR
MTRDMH
METAR KDMH 290054Z AUTO M01/M15 A3030 RMK AO1 SLP260 T10061150





000
SAUS41 KLWX 290055
MTRNAK
METAR KNAK 290054Z AUTO 30007KT 10SM CLR 00/M13 A3030 RMK AO2 SLP262
T00001133





000
SAUS41 KLWX 290055
MTRNAK
METAR KNAK 290054Z AUTO 30007KT 10SM CLR 00/M13 A3030 RMK AO2 SLP262
T00001133





000
SAUS41 KLWX 290001
MTRRSP
METAR KRSP 282354Z AUTO 10SM CLR M07/M15 RMK AO2 SLPNO 60006
T10671150 11033 21072 $





000
SAUS41 KLWX 290000
MTRRYT
METAR KRYT 282353Z AUTO VRB06KT 10SM CLR M03/M16 A3025 RMK AO2
SLP266 T10281161 11011 21039 51019 $





000
SAUS41 KLWX 282359 COR
MTRDMH
METAR KDMH 282354Z AUTO 00/M15 A3028 RMK AO1 SLP254 T00001150 10022
20000 51022





000
SAUS41 KLWX 282355
MTRNAK
METAR KNAK 282354Z AUTO 30006KT 10SM CLR 00/M14 A3028 RMK AO2 SLP256
T00001139 10022 20000 51024





000
SAUS41 KLWX 282301
MTRRSP
METAR KRSP 282254Z AUTO 10SM CLR M06/M16 RMK AO2 SLPNO T10611156 $





000
SAUS41 KLWX 282300
MTRRYT
METAR KRYT 282253Z AUTO 00000KT 10SM CLR M03/M16 A3023 RMK AO2
SLP260 T10331156 $





000
SAUS41 KLWX 282259 COR
MTRDMH
METAR KDMH 282254Z AUTO 01/M16 A3026 RMK AO1 SLP248 T00061161





000
SAUS41 KLWX 282255
MTRNAK
METAR KNAK 282254Z AUTO 31008KT 10SM CLR 01/M14 A3027 RMK AO2 SLP251
T00061144





000
SAUS41 KLWX 282201
MTRRSP
METAR KRSP 282154Z AUTO 10SM CLR M05/M16 RMK AO2 SLPNO T10501156 $





000
SAUS41 KLWX 282200
MTRRYT
METAR KRYT 282153Z AUTO VRB04KT 10SM CLR M02/M16 A3021 RMK AO2
SLP255 T10221161 $





000
SAUS41 KLWX 282159 COR
MTRDMH
METAR KDMH 282154Z AUTO 01/M16 A3024 RMK AO1 SLP239 T00111161





000
SAUS41 KLWX 282155
MTRNAK
METAR KNAK 282154Z AUTO 29008G16KT 10SM CLR 01/M14 A3024 RMK AO2
SLP240 T00111144





000
SAUS41 KLWX 282101
MTRRSP
METAR KRSP 282054Z AUTO 10SM CLR M04/M15 RMK AO2 SLPNO P0003 60006
T10391150 $





000
SAUS41 KLWX 282100
MTRRYT
METAR KRYT 282053Z AUTO 28007KT 240V310 10SM CLR M01/M17 A3019 RMK
AO2 SLP245 T10111167 53003 $





000
SAUS41 KLWX 282059 COR
MTRDMH
METAR KDMH 282054Z AUTO 02/M17 A3022 RMK AO1 SLP232 T00171172 53011





000
SAUS41 KLWX 282055
MTRNAK
METAR KNAK 282054Z AUTO 31010KT 10SM CLR 02/M13 A3021 RMK AO2 SLP233
T00221133 53008





000
SAUS41 KLWX 282001
MTRRSP
METAR KRSP 281954Z AUTO 10SM CLR M03/M15 RMK AO2 SLPNO P0001
T10331150 $





000
SAUS41 KLWX 282000
MTRRYT
METAR KRYT 281953Z AUTO 29007KT 250V320 10SM CLR M01/M17 A3018 RMK
AO2 SLP241 T10111167 $





000
SAUS41 KLWX 281959 COR
MTRDMH
METAR KDMH 281954Z AUTO 02/M17 A3021 RMK AO1 SLP228 T00171172





000
SAUS41 KLWX 281955
MTRNAK
METAR KNAK 281954Z AUTO 31011G17KT 10SM CLR 02/M14 A3020 RMK AO2
SLP227 T00221139





000
SAUS41 KLWX 281901
MTRRSP
METAR KRSP 281854Z AUTO 10SM CLR M04/M14 RMK AO2 SLPNO P0002
T10391144 $





000
SAUS41 KLWX 281900
MTRRYT
METAR KRYT 281853Z AUTO 26009KT 10SM CLR M02/M16 A3017 RMK AO2
SLP239 T10171156 $





000
SAUS41 KLWX 281859 COR
MTRDMH
METAR KDMH 281854Z AUTO 02/M17 A3018 RMK AO1 SLP220 T00171172





000
SAUS41 KLWX 281855
MTRNAK
METAR KNAK 281854Z AUTO 31011G19KT 10SM CLR 02/M14 A3018 RMK AO2
SLP221 T00171139





000
SAUS41 KLWX 281801
MTRRSP
METAR KRSP 281754Z AUTO 10SM CLR M05/M15 RMK AO2 SLPNO P0001 60001
T10501150 11050 21117 $





000
SAUS41 KLWX 281800
MTRRYT
METAR KRYT 281753Z AUTO VRB06KT 10SM CLR M03/M16 A3018 RMK AO2
SLP241 T10281161 11028 21083 50004 $





000
SAUS41 KLWX 281759 COR
MTRDMH
METAR KDMH 281754Z AUTO 01/M17 A3018 RMK AO1 SLP221 T00111167 10011
21056 58007





000
SAUS41 KLWX 281755
MTRNAK
METAR KNAK 281754Z AUTO 32012KT 10SM CLR 01/M14 A3019 RMK AO2 SLP224
T00111144 10011 21056 58006





000
SAUS41 KLWX 281701
MTRRSP
METAR KRSP 281654Z AUTO 10SM CLR M06/M16 RMK AO2 SLPNO T10611156 $





000
SAUS41 KLWX 281700
MTRRYT
METAR KRYT 281653Z AUTO 28007KT 250V320 10SM CLR M04/M16 A3019 RMK
AO2 SLP245 T10391161 $





000
SAUS41 KLWX 281659
MTRNAK
METAR KNAK 281654Z AUTO 31010KT 10SM CLR 00/M14 A3021 RMK AO2 SLP231
T00001139





000
SAUS41 KLWX 281659 COR
MTRDMH
METAR KDMH 281654Z AUTO M01/M17 A3020 RMK AO1 SLP224 T10061172





000
SAUS41 KLWX 281601
MTRRSP
METAR KRSP 281554Z AUTO 10SM CLR M07/M16 RMK AO2 SLPNO T10671161 $





000
SAUS41 KLWX 281600 COR
MTRDMH
METAR KDMH 281554Z AUTO M02/M18 A3020 RMK AO1 SLP228 T10221178





000
SAUS41 KLWX 281600
MTRRYT
METAR KRYT 281553Z AUTO VRB06KT 10SM CLR M05/M16 A3019 RMK AO2
SLP247 T10501161 $





000
SAUS41 KLWX 281555
MTRNAK
METAR KNAK 281554Z AUTO 31014KT 10SM CLR M01/M13 A3021 RMK AO2
SLP233 T10111133





000
SAUS41 KLWX 281538
MTRRSP
SPECI KRSP 281531Z AUTO 10SM CLR M07/M16 RMK AO2 $





000
SAUS41 KLWX 281500
MTRRSP
METAR KRSP 281454Z AUTO 10SM CLR M08/M16 A3035 RMK AO2 PRESRR SLP314
T10831161 53094 $





000
SAUS41 KLWX 281500
MTRRYT
METAR KRYT 281453Z AUTO 00000KT 10SM CLR M06/M16 A3017 RMK AO2
SLP239 T10561161 51030 $





000
SAUS41 KLWX 281459 COR
MTRDMH
METAR KDMH 281454Z AUTO M03/M17 A3020 RMK AO1 SLP228 T10281172 51023





000
SAUS41 KLWX 281455
MTRNAK
METAR KNAK 281454Z AUTO 32015KT 10SM CLR M03/M14 A3021 RMK AO2
SLP230 T10281139 51023





000
SAUS41 KLWX 281401
MTRRSP
METAR KRSP 281354Z AUTO 10SM CLR M11/M17 A3009 RMK AO2 SLP227
T11061167 $





000
SAUS41 KLWX 281400
MTRRYT
METAR KRYT 281353Z AUTO 34008KT 300V020 10SM CLR M07/M17 A3016 RMK
AO2 PRESRR SLP237 T10721167 $





000
SAUS41 KLWX 281359 COR
MTRDMH
METAR KDMH 281354Z AUTO M04/M17 A3019 RMK AO1 SLP223 T10441167





000
SAUS41 KLWX 281355
MTRNAK
METAR KNAK 281354Z AUTO 32012KT 10SM CLR M04/M13 A3019 RMK AO2
SLP226 T10391133





000
SAUS41 KLWX 281301
MTRRSP
METAR KRSP 281254Z AUTO 10SM CLR M12/M17 A3003 RMK AO2 SLP208
T11171167 $





000
SAUS41 KLWX 281300
MTRRYT
METAR KRYT 281253Z AUTO VRB06KT 10SM CLR M08/M17 A3012 RMK AO2
SLP224 T10831167 $





000
SAUS41 KLWX 281259 COR
MTRDMH
METAR KDMH 281254Z AUTO M06/M16 A3017 RMK AO1 SLP216 T10561156





000
SAUS41 KLWX 281255
MTRNAK
METAR KNAK 281254Z AUTO 30008KT 10SM CLR M05/M14 A3017 RMK AO2
SLP219 T10501139





000
SAUS41 KLWX 281201
MTRRSP
METAR KRSP 281154Z AUTO 10SM CLR M12/M17 A3006 RMK AO2 SLP215
T11171167 11094 21117 53059 $





000
SAUS41 KLWX 281200
MTRRYT
METAR KRYT 281153Z AUTO 30008G17KT 260V330 10SM CLR M08/M17 A3008
RMK AO2 SLP209 T10831167 11067 21089 51022 $





000
SAUS41 KLWX 281159 COR
MTRDMH
METAR KDMH 281154Z AUTO M06/M16 A3014 RMK AO1 SLP205 T10561156 11028
21056 53027





000
SAUS41 KLWX 281155
MTRNAK
METAR KNAK 281154Z AUTO 30009KT 10SM CLR M05/M14 A3014 RMK AO2
SLP207 T10501139 11017 21056 51028





000
SAUS41 KLWX 281100
MTRRYT
METAR KRYT 281053Z AUTO VRB04KT 10SM CLR M08/M16 A3007 RMK AO2
PRESRR SLP206 T10831161 $





000
SAUS41 KLWX 281100
MTRRSP
METAR KRSP 281054Z AUTO 10SM CLR M12/M17 A2999 RMK AO2 PRESRR SLP192
T11171167 $





000
SAUS41 KLWX 281059 COR
MTRDMH
METAR KDMH 281054Z AUTO M06/M15 A3010 RMK AO1 SLP194 T10561150





000
SAUS41 KLWX 281055
MTRNAK
METAR KNAK 281054Z AUTO 30007KT 10SM CLR M05/M13 A3011 RMK AO2
SLP198 T10501133





000
SAUS41 KLWX 281001
MTRRSP
METAR KRSP 280954Z AUTO 10SM CLR M12/M16 A2991 RMK AO2 PRESRR SLP164
T11171161 $





000
SAUS41 KLWX 281001
MTRRSP
METAR KRSP 280954Z AUTO 10SM CLR M12/M16 A2991 RMK AO2 PRESRR SLP164
T11171161 $





000
SAUS41 KLWX 281000
MTRRYT
METAR KRYT 280953Z AUTO VRB05KT 10SM CLR M09/M16 A3006 RMK AO2
SLP203 T10891156 $





000
SAUS41 KLWX 281000
MTRRYT
METAR KRYT 280953Z AUTO VRB05KT 10SM CLR M09/M16 A3006 RMK AO2
SLP203 T10891156 $





000
SAUS41 KLWX 280959 COR
MTRDMH
METAR KDMH 280954Z AUTO M06/M14 A3009 RMK AO1 SLP188 T10561144





000
SAUS41 KLWX 280959 COR
MTRDMH
METAR KDMH 280954Z AUTO M06/M14 A3009 RMK AO1 SLP188 T10561144





000
SAUS41 KLWX 280955
MTRNAK
METAR KNAK 280954Z AUTO 33011KT 10SM CLR M04/M11 A3008 RMK AO2
SLP189 T10391111





000
SAUS41 KLWX 280955
MTRNAK
METAR KNAK 280954Z AUTO 33011KT 10SM CLR M04/M11 A3008 RMK AO2
SLP189 T10391111





000
SAUS41 KLWX 280900
MTRRYT
METAR KRYT 280853Z AUTO VRB04KT 10SM CLR M08/M16 A3001 RMK AO2
SLP184 T10831156 53003 $





000
SAUS41 KLWX 280900
MTRRYT
METAR KRYT 280853Z AUTO VRB04KT 10SM CLR M08/M16 A3001 RMK AO2
SLP184 T10831156 53003 $





000
SAUS41 KLWX 280900
MTRRSP
METAR KRSP 280854Z AUTO 10SM CLR M11/M16 A2987 RMK AO2 SLP149
T11111161 50002 $





000
SAUS41 KLWX 280900
MTRRSP
METAR KRSP 280854Z AUTO 10SM CLR M11/M16 A2987 RMK AO2 SLP149
T11111161 50002 $





000
SAUS41 KLWX 280859 COR
MTRDMH
METAR KDMH 280854Z AUTO M04/M15 A3006 RMK AO1 SLP178 T10441150 55002





000
SAUS41 KLWX 280859 COR
MTRDMH
METAR KDMH 280854Z AUTO M04/M15 A3006 RMK AO1 SLP178 T10441150 55002





000
SAUS41 KLWX 280855
MTRNAK
METAR KNAK 280854Z AUTO 33018G21KT 10SM CLR M03/M11 A3005 RMK AO2
SLP178 T10331111 51026





000
SAUS41 KLWX 280801
MTRRSP
METAR KRSP 280754Z AUTO 10SM CLR M11/M15 A2988 RMK AO2 SLP154
T11111150 $





000
SAUS41 KLWX 280800
MTRRYT
METAR KRYT 280753Z AUTO VRB06G20KT 10SM CLR M08/M16 A3000 RMK AO2
SLP179 T10781156 $





000
SAUS41 KLWX 280759 COR
MTRDMH
METAR KDMH 280754Z AUTO M04/M14 A3004 RMK AO1 SLP171 T10441139





000
SAUS41 KLWX 280755
MTRNAK
METAR KNAK 280754Z AUTO 33014KT 10SM CLR M03/M11 A3003 RMK AO2
SLP171 T10281111





000
SAUS41 KLWX 280700
MTRRSP
METAR KRSP 280654Z AUTO 10SM CLR M11/M14 A2988 RMK AO2 PRESRR SLP150
T11061139 $





000
SAUS41 KLWX 280700
MTRRYT
METAR KRYT 280653Z AUTO 27009G19KT 230V310 10SM CLR M07/M15 A3000
RMK AO2 SLP179 T10721150 $





000
SAUS41 KLWX 280700
MTRRYT
METAR KRYT 280653Z AUTO 27009G19KT 230V310 10SM CLR M07/M15 A3000
RMK AO2 SLP179 T10721150 $





000
SAUS41 KLWX 280700
MTRRSP
METAR KRSP 280654Z AUTO 10SM CLR M11/M14 A2988 RMK AO2 PRESRR SLP150
T11061139 $





000
SAUS41 KLWX 280659 COR
MTRDMH
METAR KDMH 280654Z AUTO M03/M14 A3001 RMK AO1 SLP163 T10331144





000
SAUS41 KLWX 280659 COR
MTRDMH
METAR KDMH 280654Z AUTO M03/M14 A3001 RMK AO1 SLP163 T10331144





000
SAUS41 KLWX 280655
MTRNAK
METAR KNAK 280654Z AUTO 34014KT 10SM CLR M02/M11 A3000 RMK AO2
SLP162 T10221106





000
SAUS41 KLWX 280655
MTRNAK
METAR KNAK 280654Z AUTO 34014KT 10SM CLR M02/M11 A3000 RMK AO2
SLP162 T10221106





000
SAUS41 KLWX 280601
MTRRSP
METAR KRSP 280554Z AUTO 10SM CLR M09/M13 A2987 RMK AO2 SLP147
T10941133 11067 21094 55008 $





000
SAUS41 KLWX 280601
MTRRSP
METAR KRSP 280554Z AUTO 10SM CLR M09/M13 A2987 RMK AO2 SLP147
T10941133 11067 21094 55008 $





000
SAUS41 KLWX 280600
MTRRYT
METAR KRYT 280553Z AUTO VRB05G14KT 10SM CLR M07/M14 A3000 RMK AO2
SLP181 T10671144 11033 21067 53037 $





000
SAUS41 KLWX 280600
MTRRYT
METAR KRYT 280553Z AUTO VRB05G14KT 10SM CLR M07/M14 A3000 RMK AO2
SLP181 T10671144 11033 21067 53037 $





000
SAUS41 KLWX 280559 COR
MTRDMH
METAR KDMH 280554Z AUTO M03/M14 A3006 RMK AO1 PRESRR SLP180
T10281139 11006 21028 53055





000
SAUS41 KLWX 280559 COR
MTRDMH
METAR KDMH 280554Z AUTO M03/M14 A3006 RMK AO1 PRESRR SLP180
T10281139 11006 21028 53055





000
SAUS41 KLWX 280555
MTRNAK
METAR KNAK 280554Z AUTO 32014G23KT 10SM CLR M02/M10 A2998 RMK AO2
SLP152 T10171100 10000 21017 51022





000
SAUS41 KLWX 280555
MTRNAK
METAR KNAK 280554Z AUTO 32014G23KT 10SM CLR M02/M10 A2998 RMK AO2
SLP152 T10171100 10000 21017 51022





000
SAUS41 KLWX 280501 COR
MTRDMH
METAR KDMH 280454Z AUTO M02/M13 A2995 RMK AO1 SLP142 T10221128
400111033





000
SAUS41 KLWX 280501
MTRRSP
METAR KRSP 280454Z AUTO 10SM CLR M09/M13 A2984 RMK AO2 SLP137
T10891128 410441089 $





000
SAUS41 KLWX 280500
MTRRYT
METAR KRYT 280453Z AUTO 29008KT 10SM CLR M06/M13 A2996 RMK AO2
SLP165 T10561128 410111056 $





000
SAUS41 KLWX 280457
MTRNAK
METAR KNAK 280454Z AUTO 32015G22KT 10SM CLR M01/M09 A2996 RMK AO2
SLP145 T10111094 400281022





000
SAUS41 KLWX 280401
MTRRSP
METAR KRSP 280354Z AUTO 10SM CLR M08/M12 A2987 RMK AO2 SLP148
T10831122 $





000
SAUS41 KLWX 280400
MTRRYT
METAR KRYT 280353Z AUTO VRB04KT 10SM CLR M05/M12 A2993 RMK AO2
SLP157 T10501117 $





000
SAUS41 KLWX 280359 COR
MTRDMH
METAR KDMH 280354Z AUTO M02/M11 A2993 RMK AO1 SLP133 T10221106





000
SAUS41 KLWX 280355
MTRNAK
METAR KNAK 280354Z AUTO 31011G21KT 10SM CLR M01/M08 A2993 RMK AO2
SLP137 T10111083





000
SAUS41 KLWX 280355
MTRNAK
METAR KNAK 280354Z AUTO 31011G21KT 10SM CLR M01/M08 A2993 RMK AO2
SLP137 T10111083





000
SAUS41 KLWX 280300
MTRRYT
METAR KRYT 280253Z AUTO 27005KT 10SM CLR M04/M11 A2989 RMK AO2
SLP142 T10441111 53017 $





000
SAUS41 KLWX 280300
MTRRYT
METAR KRYT 280253Z AUTO 27005KT 10SM CLR M04/M11 A2989 RMK AO2
SLP142 T10441111 53017 $





000
SAUS41 KLWX 280300
MTRRSP
METAR KRSP 280254Z AUTO 10SM CLR M08/M12 A2989 RMK AO2 SLP155
T10781117 55026 $





000
SAUS41 KLWX 280300
MTRRSP
METAR KRSP 280254Z AUTO 10SM CLR M08/M12 A2989 RMK AO2 SLP155
T10781117 55026 $





000
SAUS41 KLWX 280259 COR
MTRDMH
METAR KDMH 280254Z AUTO M02/M11 A2990 RMK AO1 SLP125 T10171106 53022





000
SAUS41 KLWX 280259 COR
MTRDMH
METAR KDMH 280254Z AUTO M02/M11 A2990 RMK AO1 SLP125 T10171106 53022





000
SAUS41 KLWX 280255
MTRNAK
METAR KNAK 280254Z AUTO 31010KT 10SM CLR M01/M08 A2991 RMK AO2
SLP130 T10111083 53022





000
SAUS41 KLWX 280255
MTRNAK
METAR KNAK 280254Z AUTO 31010KT 10SM CLR M01/M08 A2991 RMK AO2
SLP130 T10111083 53022





000
SAUS41 KLWX 280201
MTRRSP
METAR KRSP 280154Z AUTO 10SM CLR M08/M11 A2975 RMK AO2 SLP107
T10781111 $





000
SAUS41 KLWX 280200
MTRRYT
METAR KRYT 280153Z AUTO VRB05G19KT 10SM CLR M04/M11 A2986 RMK AO2
SLP133 T10441106 $





000
SAUS41 KLWX 280159 COR
MTRDMH
METAR KDMH 280154Z AUTO M01/M10 A2988 RMK AO1 SLP117 T10111100





000
SAUS41 KLWX 280155
MTRNAK
METAR KNAK 280154Z AUTO 31012G18KT 10SM CLR M01/M07 A2989 RMK AO2
SLP123 T10061067





000
SAUS41 KLWX 280101
MTRRSP
METAR KRSP 280054Z AUTO 10SM CLR M07/M11 A2980 RMK AO2 PRESFR SLP122
T10721106 $





000
SAUS41 KLWX 280100
MTRRYT
METAR KRYT 280053Z AUTO VRB04KT 10SM CLR M04/M10 A2985 RMK AO2
PRESFR SLP127 T10391100 $





000
SAUS41 KLWX 280059 COR
MTRDMH
METAR KDMH 280054Z AUTO M01/M08 A2985 RMK AO1 SLP109 T10111083





000
SAUS41 KLWX 280055
MTRNAK
METAR KNAK 280054Z AUTO 31012KT 10SM CLR 00/M06 A2986 RMK AO2 SLP114
T00001061





000
SAUS41 KLWX 280001
MTRRSP
METAR KRSP 272354Z AUTO 10SM CLR M07/M09 A2997 RMK AO2 PRESFR SLP182
60000 T10671094 11044 21067 50101 $





000
SAUS41 KLWX 280000
MTRRYT
METAR KRYT 272353Z AUTO VRB05KT 10SM FEW085 M03/M09 A2984 RMK AO2
SLP124 60000 T10331089 11011 21033 53015 $





000
SAUS41 KLWX 272359 COR
MTRDMH
METAR KDMH 272354Z AUTO M01/M07 A2984 RMK AO1 SLP103 T10061067 10011
21006 53025





000
SAUS41 KLWX 272355
MTRNAK
METAR KNAK 272354Z AUTO 31010KT 10SM CLR 00/M06 A2985 RMK AO2 SLP108
T00001061 10028 20000 53025





000
SAUS41 KLWX 272301
MTRRSP
METAR KRSP 272254Z AUTO 9SM FEW013 M06/M09 A3010 RMK AO2 SNE10
SLP225 P0000 T10611089 $





000
SAUS41 KLWX 272300
MTRRYT
METAR KRYT 272253Z AUTO 32007G15KT 270V350 10SM FEW080 M03/M08 A2981
RMK AO2 SLP116 T10281083 $





000
SAUS41 KLWX 272259 COR
MTRDMH
METAR KDMH 272254Z AUTO 00/M07 A2981 RMK AO1 SLP094 T00001067





000
SAUS41 KLWX 272255
MTRNAK
METAR KNAK 272254Z AUTO 31011G21KT 10SM CLR 01/M06 A2982 RMK AO2
SLP099 T00061056





000
SAUS41 KLWX 272238
MTRRSP
SPECI KRSP 272232Z AUTO 8SM FEW005 SCT013 M06/M08 A3005 RMK AO2
SNE10 PRESRR P0000 $





000
SAUS41 KLWX 272228
MTRRSP
SPECI KRSP 272221Z AUTO 6SM BR SCT007 BKN015 M06/M08 A2996 RMK AO2
SNE10 PRESRR P0000 $





000
SAUS41 KLWX 272220
MTRRSP
SPECI KRSP 272213Z AUTO 3SM BR BKN005 BKN009 OVC013 M06/M07 A2986
RMK AO2 SNE10 PRESRR P0000 $





000
SAUS41 KLWX 272211
MTRRSP
SPECI KRSP 272205Z AUTO 1 1/2SM -SN BR BKN007 OVC013 M06/M07 A2974
RMK AO2 PRESRR P0000 $





000
SAUS41 KLWX 272201
MTRRSP
METAR KRSP 272154Z AUTO 3/4SM -SN BR BKN007 BKN013 OVC070 M06/M07
A2966 RMK AO2 SLP072 P0000 T10561072 $





000
SAUS41 KLWX 272200
MTRRYT
METAR KRYT 272153Z AUTO VRB06G15KT 8SM OVC050 M03/M08 A2981 RMK AO2
SNE50 SLP113 P0000 T10281078 $





000
SAUS41 KLWX 272159 COR
MTRDMH
METAR KDMH 272154Z AUTO 01/M07 A2979 RMK AO1 SLP086 T00111072





000
SAUS41 KLWX 272155
MTRNAK
METAR KNAK 272154Z AUTO 28012G19KT 10SM CLR 01/M06 A2979 RMK AO2
SLP089 T00111061





000
SAUS41 KLWX 272137
MTRRYT
SPECI KRYT 272130Z AUTO VRB05G18KT 4SM -SN FEW015 BKN050 OVC070
M02/M06 A2981 RMK AO2 P0000 $





000
SAUS41 KLWX 272137
MTRRSP
SPECI KRSP 272130Z AUTO 1/2SM -SN FZFG SCT007 BKN013 OVC065 M06/M07
A2965 RMK AO2 P0000 $





000
SAUS41 KLWX 272125
MTRRSP
SPECI KRSP 272119Z AUTO 3/4SM -SN BR SCT009 BKN017 OVC070 M05/M07
A2965 RMK AO2 P0000 $





000
SAUS41 KLWX 272119
MTRRSP
SPECI KRSP 272112Z AUTO 1 1/4SM -SN BR SCT009 SCT019 OVC065 M05/M07
A2965 RMK AO2 PRESFR P0000 $





000
SAUS41 KLWX 272109
MTRRYT
SPECI KRYT 272102Z AUTO 28007G15KT 4SM -SN BKN017 OVC075 M02/M06
A2979 RMK AO2 P0000 $





000
SAUS41 KLWX 272100
MTRRSP
METAR KRSP 272054Z AUTO 3SM -SN BR SCT011 OVC065 M05/M07 A2969 RMK
AO2 SNB53 SLP083 P0000 60000 T10501072 55027 $





000
SAUS41 KLWX 272100
MTRRYT
METAR KRYT 272053Z AUTO VRB06KT 5SM -SN SCT017 SCT022 OVC070 M02/M06
A2980 RMK AO2 SNB37 SLP108 P0000 60000 T10221061 $





000
SAUS41 KLWX 272059 COR
MTRDMH
METAR KDMH 272054Z AUTO 01/M08 A2976 RMK AO1 SLP078 T00111083 56012





000
SAUS41 KLWX 272055
MTRNAK
METAR KNAK 272054Z AUTO 30009G17KT 10SM CLR 02/M06 A2977 RMK AO2
SLP083 T00221061 53002





000
SAUS41 KLWX 272044
MTRRSP
SPECI KRSP 272038Z AUTO 7SM BKN011 OVC060 M05/M07 A2971 RMK AO2 $





000
SAUS41 KLWX 272000
MTRRYT
METAR KRYT 271953Z 36008KT 10SM OVC070 M01/M07 A2977 RMK AO2 SLP100
T10111072 $





000
SAUS41 KLWX 272000
MTRRSP
METAR KRSP 271954Z AUTO 10SM BKN011 BKN025 OVC048 M05/M07 A2965 RMK
AO2 SLP070 T10501072 $





000
SAUS41 KLWX 271959 COR
MTRDMH
METAR KDMH 271954Z AUTO 01/M08 A2976 RMK AO1 PRESFR SLP078 T00111078





000
SAUS41 KLWX 271955
MTRNAK
METAR KNAK 271954Z AUTO 32011G19KT 10SM BKN055 02/M06 A2977 RMK AO2
SLP082 T00221061





000
SAUS41 KLWX 271912
MTRRYT
SPECI KRYT 271905Z 33007KT 290V360 10SM SCT024 SCT033 BKN080 M02/M07
A2977 RMK AO2 $





000
SAUS41 KLWX 271900
MTRRYT
METAR KRYT 271853Z VRB06G15KT 10SM BKN024 M01/M07 A2977 RMK AO2
SLP099 T10111072 $





000
SAUS41 KLWX 271900
MTRRSP
METAR KRSP 271854Z AUTO 10SM BKN007 OVC012 M04/M07 A2970 RMK AO2 CIG
006V009 SLP087 T10441067 $





000
SAUS41 KLWX 271859 COR
MTRDMH
METAR KDMH 271854Z AUTO 01/M07 A2979 RMK AO1 SLP089 T00061072





000
SAUS41 KLWX 271855
MTRNAK
METAR KNAK 271854Z AUTO 31013KT 10SM FEW047 02/M06 A2976 RMK AO2
SLP080 T00171056





000
SAUS41 KLWX 271849
MTRRYT
SPECI KRYT 271842Z VRB06KT 2 1/2SM FEW002 BKN022 M01/M07 A2977 RMK
AO2 $





000
SAUS41 KLWX 271801
MTRRSP
METAR KRSP 271754Z AUTO 10SM OVC007 M05/M07 A2977 RMK AO2 SLP112
60000 T10501067 11044 21067 50046 $





000
SAUS41 KLWX 271800
MTRRYT
METAR KRYT 271753Z AUTO VRB03KT 9SM BKN020 BKN026 M02/M06 A2977 RMK
AO2 SLP101 60000 T10221061 11017 21044 50000 $





000
SAUS41 KLWX 271759 COR
MTRDMH
METAR KDMH 271754Z AUTO 00/M07 A2980 RMK AO1 SLP090 T00001067 10006
21022 58003





000
SAUS41 KLWX 271755
MTRNAK
METAR KNAK 271754Z AUTO 32009KT 10SM FEW030 BKN043 01/M05 A2977 RMK
AO2 SLP082 T00111050 10011 21011 58011





000
SAUS41 KLWX 271737
MTRRYT
SPECI KRYT 271730Z AUTO 29005KT 10SM FEW016 SCT031 M02/M06 A2978 RMK
AO2 $





000
SAUS41 KLWX 271735
MTRRSP
SPECI KRSP 271729Z AUTO 7SM BKN007 BKN085 M04/M06 A2974 RMK AO2
PRESFR $





000
SAUS41 KLWX 271701
MTRRSP
METAR KRSP 271654Z AUTO 6SM BR SCT007 SCT065 BKN085 M05/M07 A2980
RMK AO2 SLP122 T10501067 $





000
SAUS41 KLWX 271700
MTRRYT
METAR KRYT 271653Z AUTO 27007KT 240V300 5SM HZ BKN016 OVC022 M02/M07
A2978 RMK AO2 SLP103 T10221067 $





000
SAUS41 KLWX 271659 COR
MTRDMH
METAR KDMH 271654Z AUTO 00/M06 A2980 RMK AO1 SLP091 T00001061





000
SAUS41 KLWX 271656
MTRNAK
METAR KNAK 271654Z AUTO 32011KT 10SM SCT028 OVC043 01/M06 A2979 RMK
AO2 SLP089 T00061056





000
SAUS41 KLWX 271642
MTRRSP
SPECI KRSP 271636Z AUTO 8SM FEW007 BKN075 BKN090 M06/M07 A2978 RMK
AO2 $





000
SAUS41 KLWX 271627
MTRRYT
SPECI KRYT 271620Z AUTO VRB05KT 7SM FEW016 BKN027 BKN046 M03/M07
A2979 RMK AO2 $





000
SAUS41 KLWX 271600
MTRRSP
METAR KRSP 271554Z AUTO 4SM BR FEW006 BKN042 OVC065 M06/M08 A2975
RMK AO2 PRESRR SLP103 T10561078 $





000
SAUS41 KLWX 271600
MTRRYT
METAR KRYT 271553Z AUTO VRB05KT 10SM FEW016 BKN046 M03/M07 A2979 RMK
AO2 SLP107 T10331072 $





000
SAUS41 KLWX 271559 COR
MTRDMH
METAR KDMH 271554Z AUTO M01/M06 A2982 RMK AO1 SLP097 T10111061





000
SAUS41 KLWX 271555
MTRNAK
METAR KNAK 271554Z AUTO 33013KT 10SM OVC039 00/M05 A2980 RMK AO2
SLP093 T00001050





000
SAUS41 KLWX 271553
MTRRSP
SPECI KRSP 271546Z AUTO 6SM BR SCT006 BKN035 OVC070 M06/M08 A2974
RMK AO2 $





000
SAUS41 KLWX 271553
MTRRSP
SPECI KRSP 271546Z AUTO 6SM BR SCT006 BKN035 OVC070 M06/M08 A2974
RMK AO2 $





000
SAUS41 KLWX 271501 COR
MTRDMH
METAR KDMH 271454Z AUTO M01/M06 A2981 RMK AO1 SLP094 T10111061 53015





000
SAUS41 KLWX 271500
MTRRYT
METAR KRYT 271453Z AUTO VRB04KT 10SM BKN046 OVC095 M04/M08 A2977 RMK
AO2 SLP103 60000 T10391078 53004 $





000
SAUS41 KLWX 271455
MTRRSP
METAR KRSP 271454Z AUTO 6SM BR OVC004 M07/M08 A2963 RMK AO2 CIG
003V008 PRESRR SLP064 60000 T10671078 55056 $





000
SAUS41 KLWX 271455
MTRNAK
METAR KNAK 271454Z AUTO 32013KT 10SM FEW026 BKN042 M01/M05 A2980 RMK
AO2 SLP093 T10061050 51015





000
SAUS41 KLWX 271416 COR
MTRRSP
SPECI KRSP 271411Z AUTO 3SM BR BKN006 BKN028 OVC032 M07/M08 A2943
RMK AO2 CIG 005V009 PRESRR $





000
SAUS41 KLWX 271408 COR
MTRRSP
SPECI KRSP 271401Z AUTO 6SM BR SCT006 OVC032 M07/M08 A2936 RMK AO2
PRESRR $





000
SAUS41 KLWX 271400
MTRRYT
METAR KRYT 271353Z AUTO 00000KT 10SM OVC042 M04/M08 A2976 RMK AO2
SNE06 SLP100 P0000 T10391078 $





000
SAUS41 KLWX 271359 COR
MTRDMH
METAR KDMH 271354Z AUTO M02/M06 A2979 RMK AO1 SLP087 T10171061





000
SAUS41 KLWX 271355
MTRNAK
METAR KNAK 271354Z AUTO 33013G16KT 10SM OVC042 M01/M04 A2979 RMK AO2
SLP089 T10111044





000
SAUS41 KLWX 271354
MTRRSP
METAR KRSP 271354Z AUTO 4SM BR SCT006 BKN020 OVC032 M07/M08 A2933
RMK AO2 SNE50 PRESRR SLP962 P0000 T10671083 $





000
SAUS41 KLWX 271340 COR
MTRRSP
SPECI KRSP 271332Z AUTO 1SM -SN BR BKN006 OVC024 M07/M08 A2930 RMK
AO2 PRESFR P0000 $





000
SAUS41 KLWX 271331 COR
MTRRSP
SPECI KRSP 271323Z AUTO 3/4SM -SN BR BKN006 OVC028 M07/M08 A2933 RMK
AO2 PRESFR P0000 $





000
SAUS41 KLWX 271310
MTRRSP
SPECI KRSP 271310Z AUTO 1 1/2SM -SN BR BKN006 BKN033 OVC060 M07/M08
A2947 RMK AO2 VIS 1V2 1/2 PRESFR P0000 $





000
SAUS41 KLWX 271309
MTRRYT
SPECI KRYT 271302Z AUTO VRB03KT 3SM -SN OVC040 M04/M08 A2976 RMK AO2
P0000 $





000
SAUS41 KLWX 271302 COR
MTRRSP
METAR KRSP 271254Z AUTO 2 1/2SM -SN BR BKN006 BKN038 OVC060 M07/M08
A2974 RMK AO2 SNB16 PRESFR SLP101 P0000 T10671083 $





000
SAUS41 KLWX 271300
MTRRYT
METAR KRYT 271253Z AUTO 00000KT 1 1/4SM -SN OVC038 M04/M08 A2976 RMK
AO2 SLP098 P0000 T10441078 $





000
SAUS41 KLWX 271259 COR
MTRDMH
METAR KDMH 271254Z AUTO M02/M06 A2978 RMK AO1 SLP084 T10221061





000
SAUS41 KLWX 271255
MTRNAK
METAR KNAK 271254Z AUTO 33013KT 10SM SCT044 BKN050 M01/M04 A2978 RMK
AO2 SLP088 T10111044





000
SAUS41 KLWX 271250
MTRRSP
SPECI KRSP 271249Z AUTO 2SM -SN BR BKN006 BKN037 OVC060 M07/M08
A2980 RMK AO2 SNB16 PRESFR P0000 $





000
SAUS41 KLWX 271240
MTRRYT
SPECI KRYT 271233Z AUTO VRB04KT 2SM -SN FEW018 OVC036 M04/M08 A2976
RMK AO2 P0000 $





000
SAUS41 KLWX 271234 COR
MTRRSP
SPECI KRSP 271230Z AUTO 3/4SM -SN BR SCT008 BKN027 OVC040 M07/M09
A2985 RMK AO2 SNB16 P0000 $





000
SAUS41 KLWX 271232
MTRRYT
SPECI KRYT 271225Z AUTO VRB03KT 1 3/4SM -SN FEW018 OVC034 M04/M08
A2976 RMK AO2 P0000 $





000
SAUS41 KLWX 271202 COR
MTRRSP
METAR KRSP 271154Z AUTO 8SM OVC041 M07/M09 A2992 RMK AO2 SLP166
60000 T10671089 11056 21067 50100 $





000
SAUS41 KLWX 271200
MTRRYT
METAR KRYT 271153Z AUTO VRB04KT 8SM -SN OVC038 M04/M08 A2974 RMK AO2
SNB51 SLP092 P0000 60000 70014 T10391078 11033 21039 53009 $





000
SAUS41 KLWX 271159 COR
MTRDMH
METAR KDMH 271154Z AUTO M02/M06 A2977 RMK AO1 SLP079 70010 T10221056
11022 21033 53011





000
SAUS41 KLWX 271156
MTRNAK
METAR KNAK 271154Z AUTO 34011KT 10SM OVC039 M01/M04 A2976 RMK AO2
SNE00 SLP079 P0000 60000 70009 T10111044 11011 21022 53013





000
SAUS41 KLWX 271102
MTRRSP
SPECI KRSP 271102Z AUTO 8SM SCT008 OVC045 M07/M08 A3010 RMK AO2 $





000
SAUS41 KLWX 271100
MTRRYT
METAR KRYT 271053Z AUTO VRB04KT 10SM OVC038 M04/M08 A2973 RMK AO2
SNE02 SLP086 P0000 T10391078 $





000
SAUS41 KLWX 271059 COR
MTRDMH
METAR KDMH 271054Z AUTO M02/M06 A2976 RMK AO1 SLP076 T10221056





000
SAUS41 KLWX 271055
MTRNAK
METAR KNAK 271054Z AUTO 33010KT 7SM -SN OVC034 M01/M04 A2975 RMK AO2
SNB50 SLP075 P0000 T10111044





000
SAUS41 KLWX 271042 COR
MTRRSP
SPECI KRSP 271034Z AUTO 6SM BR BKN006 OVC043 M07/M08 A2995 RMK AO2
SNE12 PRESRR P0000 $





000
SAUS41 KLWX 271018 COR
MTRRSP
SPECI KRSP 271014Z AUTO 4SM BR OVC004 M07/M08 A2969 RMK AO2 SNE12
PRESRR P0000 $





000
SAUS41 KLWX 271010 COR
MTRRSP
SPECI KRSP 271004Z AUTO 2 1/2SM -SN BR OVC004 M06/M08 A2963 RMK AO2
P0000 $





000
SAUS41 KLWX 271001 COR
MTRRSP
METAR KRSP 270954Z AUTO 3SM -SN BR OVC004 M06/M08 A2964 RMK AO2
SNE05B29 CIG 003V007 SLP066 P0000 T10611078 $





000
SAUS41 KLWX 271000
MTRRYT
METAR KRYT 270953Z AUTO VRB03KT 4SM -SN OVC034 M04/M07 A2972 RMK AO2
SNB36 SLP085 P0000 T10391072 $





000
SAUS41 KLWX 271000
MTRRYT
METAR KRYT 270953Z AUTO VRB03KT 4SM -SN OVC034 M04/M07 A2972 RMK AO2
SNB36 SLP085 P0000 T10391072 $





000
SAUS41 KLWX 270959 COR
MTRDMH
METAR KDMH 270954Z AUTO M02/M06 A2974 RMK AO1 SLP069 T10221056





000
SAUS41 KLWX 270959 COR
MTRDMH
METAR KDMH 270954Z AUTO M02/M06 A2974 RMK AO1 SLP069 T10221056





000
SAUS41 KLWX 270956
MTRNAK
METAR KNAK 270954Z AUTO 33010KT 10SM FEW023 OVC033 M01/M05 A2973 RMK
AO2 SLP068 T10111050





000
SAUS41 KLWX 270956
MTRNAK
METAR KNAK 270954Z AUTO 33010KT 10SM FEW023 OVC033 M01/M05 A2973 RMK
AO2 SLP068 T10111050





000
SAUS41 KLWX 270912
MTRRYT
SPECI KRYT 270905Z AUTO 00000KT 10SM OVC030 M03/M07 A2972 RMK AO2 $





000
SAUS41 KLWX 270902 COR
MTRRSP
METAR KRSP 270854Z AUTO 3SM -SN BR OVC004 M06/M08 A2961 RMK AO2
SNB47 SLP057 P0000 60000 T10611078 58009 $





000
SAUS41 KLWX 270900
MTRRYT
METAR KRYT 270853Z AUTO VRB03KT 10SM OVC028 M03/M07 A2972 RMK AO2
SLP083 60000 T10331072 55003 $





000
SAUS41 KLWX 270859 COR
MTRDMH
METAR KDMH 270854Z AUTO M02/M06 A2973 RMK AO1 SLP068 T10221061 50001





000
SAUS41 KLWX 270855
MTRNAK
METAR KNAK 270854Z AUTO 34012KT 10SM OVC033 M02/M05 A2972 RMK AO2
SNB12E20 SLP065 P0000 60000 T10171050 50000





000
SAUS41 KLWX 270839 COR
MTRRSP
SPECI KRSP 270832Z AUTO 7SM BKN004 BKN015 OVC021 M06/M08 A2961 RMK
AO2 $





000
SAUS41 KLWX 270810 COR
MTRRSP
SPECI KRSP 270804Z AUTO 8SM FEW003 OVC014 M06/M08 A2963 RMK AO2 $





000
SAUS41 KLWX 270802 COR
MTRRSP
METAR KRSP 270754Z AUTO 8SM BKN003 OVC014 M06/M08 A2963 RMK AO2
SLP064 T10611078 $





000
SAUS41 KLWX 270800
MTRRYT
METAR KRYT 270753Z AUTO 00000KT 10SM OVC025 M04/M06 A2972 RMK AO2
SLP083 T10391061 $





000
SAUS41 KLWX 270759 COR
MTRDMH
METAR KDMH 270754Z AUTO M03/M06 A2974 RMK AO1 SLP070 T10281061





000
SAUS41 KLWX 270755
MTRNAK
METAR KNAK 270754Z AUTO 33013KT 6SM BR SCT027 OVC035 M02/M04 A2972
RMK AO2 SLP066 T10221044





000
SAUS41 KLWX 270739 COR
MTRRSP
SPECI KRSP 270733Z AUTO 8SM BKN003 OVC018 M06/M08 A2965 RMK AO2 $





000
SAUS41 KLWX 270702 COR
MTRRSP
METAR KRSP 270654Z AUTO 10SM FEW012 OVC022 M06/M08 A2967 RMK AO2
PRESRR SLP076 T10561078 $





000
SAUS41 KLWX 270700
MTRRYT
METAR KRYT 270653Z AUTO 00000KT 10SM OVC029 M03/M07 A2973 RMK AO2
SNE34 SLP086 P0000 T10331067 $





000
SAUS41 KLWX 270659 COR
MTRDMH
METAR KDMH 270654Z AUTO M03/M06 A2974 RMK AO1 SLP071 T10281061





000
SAUS41 KLWX 270655
MTRNAK
METAR KNAK 270654Z AUTO 32011KT 10SM OVC021 M02/M05 A2972 RMK AO2
SNB19E30 SLP066 P0000 T10221050





000
SAUS41 KLWX 270641
MTRRYT
SPECI KRYT 270634Z AUTO 00000KT 4SM BR OVC031 M04/M06 A2972 RMK AO2
SNE34 P0000 $





000
SAUS41 KLWX 270635 COR
MTRRSP
SPECI KRSP 270627Z AUTO 10SM BKN024 OVC033 M06/M08 A2965 RMK AO2 $





000
SAUS41 KLWX 270627
MTRRYT
SPECI KRYT 270620Z AUTO 00000KT 2 1/2SM -SN BR OVC033 M04/M06 A2973
RMK AO2 P0000 $





000
SAUS41 KLWX 270600
MTRRYT
METAR KRYT 270553Z AUTO 00000KT 4SM -SN FEW023 OVC037 M04/M07 A2973
RMK AO2 SLP087 P0000 60008 T10391067 11039 21050 56010 $





000
SAUS41 KLWX 270559 COR
MTRDMH
METAR KDMH 270554Z AUTO M03/M06 A2973 RMK AO1 SLP067 60001 T10331061
11017 21033 58005





000
SAUS41 KLWX 270558 COR
MTRRSP
METAR KRSP 270554Z AUTO 6SM BR FEW010 BKN030 OVC037 M06/M08 A2964
RMK AO2 SNE51 PRESRR SLP066 P0000 60000 T10611078 11061 21072 53015
$





000
SAUS41 KLWX 270555
MTRNAK
METAR KNAK 270554Z AUTO 33012KT 4SM BR BKN018 OVC028 M02/M04 A2972
RMK AO2 SLP066 60001 I6000 T10221044 11006 21022 58002





000
SAUS41 KLWX 270537
MTRRSP
SPECI KRSP 270537Z AUTO 3/4SM -SN BR BKN008 BKN025 OVC030 M06/M08
A2961 RMK AO2 PRESRR P0000 $





000
SAUS41 KLWX 270527
MTRRYT
SPECI KRYT 270520Z AUTO 33003KT 6SM -SN BKN030 OVC035 M04/M07 A2973
RMK AO2 P0000 $





000
SAUS41 KLWX 270501 COR
MTRRSP
METAR KRSP 270454Z AUTO 1 1/2SM -SN BR FEW007 BKN016 OVC025 M06/M08
A2950 RMK AO2 SNE11B29 PRESRR SLP016 P0000 T10611078 400001072 $





000
SAUS41 KLWX 270500
MTRRYT
METAR KRYT 270453Z AUTO VRB03KT 4SM -SN OVC028 M04/M07 A2973 RMK AO2
SLP086 P0000 T10391067 400061050 $





000
SAUS41 KLWX 270459 COR
MTRDMH
METAR KDMH 270454Z AUTO M03/M06 A2974 RMK AO1 SLP070 T10331056
400501033





000
SAUS41 KLWX 270455
MTRNAK
METAR KNAK 270454Z AUTO 32010KT 8SM OVC018 M02/M04 A2972 RMK AO2
SNE30 SLP066 P0000 T10171039 400501017





000
SAUS41 KLWX 270453 COR
MTRRSP
SPECI KRSP 270445Z AUTO 2SM -SN BR FEW007 OVC016 M06/M08 A2948 RMK
AO2 SNE11B29 PRESRR P0000 $





000
SAUS41 KLWX 270422 COR
MTRRSP
SPECI KRSP 270418Z AUTO 4SM BR OVC016 M07/M08 A2945 RMK AO2 SNE11
P0000 $





000
SAUS41 KLWX 270419
MTRRYT
SPECI KRYT 270412Z AUTO VRB03KT 3SM -SN BR OVC026 M04/M07 A2974 RMK
AO2 P0000 $





000
SAUS41 KLWX 270418
MTRNAK
SPECI KNAK 270417Z AUTO 32008KT 3SM -SN BR BKN019 OVC023 M02/M03
A2973 RMK AO2 P0000 T10171033





000
SAUS41 KLWX 270409
MTRNAK
SPECI KNAK 270408Z AUTO 34010KT 1 1/2SM -SN BR OVC019 M02/M03 A2973
RMK AO2 P0000 T10171033





000
SAUS41 KLWX 270400
MTRRYT
METAR KRYT 270353Z AUTO 00000KT 2SM -SN BR SCT014 OVC028 M04/M07
A2974 RMK AO2 SLP090 P0002 T10441067 $





000
SAUS41 KLWX 270359 COR
MTRDMH
METAR KDMH 270354Z AUTO M03/M06 A2974 RMK AO1 SLP070 T10281056





000
SAUS41 KLWX 270358 COR
MTRRSP
METAR KRSP 270354Z AUTO 1 1/4SM -SN BR FEW011 OVC016 M07/M08 A2955
RMK AO2 SLP036 P0000 T10671083 $





000
SAUS41 KLWX 270355
MTRNAK
METAR KNAK 270354Z AUTO 33011KT 2 1/2SM -SN BKN020 OVC025 M01/M04
A2973 RMK AO2 SLP069 P0000 T10111039





000
SAUS41 KLWX 270346
MTRNAK
SPECI KNAK 270345Z AUTO 33009KT 2 1/2SM -SN BKN020 OVC024 M01/M04
A2973 RMK AO2 P0000 T10111039





000
SAUS41 KLWX 270346
MTRNAK
SPECI KNAK 270345Z AUTO 33009KT 2 1/2SM -SN BKN020 OVC024 M01/M04
A2973 RMK AO2 P0000 T10111039





000
SAUS41 KLWX 270329
MTRRYT
SPECI KRYT 270322Z AUTO 00000KT 1SM -SN BR VV014 M04/M06 A2975 RMK
AO2 P0001 $





000
SAUS41 KLWX 270323 COR
MTRRSP
SPECI KRSP 270315Z AUTO 3/4SM -SN BR OVC016 M07/M08 A3033 RMK AO2
P0000 $





000
SAUS41 KLWX 270323 COR
MTRRSP
SPECI KRSP 270315Z AUTO 3/4SM -SN BR OVC016 M07/M08 A3033 RMK AO2
P0000 $





000
SAUS41 KLWX 270302 COR
MTRRSP
METAR KRSP 270254Z AUTO 3/4SM -SN BR FEW006 OVC016 M07/M08 A3010 RMK
AO2 PRESRR SLP225 P0000 60000 T10671083 53157 $





000
SAUS41 KLWX 270300
MTRRYT
METAR KRYT 270253Z AUTO 00000KT 1 1/4SM -SN BR BKN015 OVC020 M04/M07
A2976 RMK AO2 SLP097 P0001 60006 T10441067 51008 $





000
SAUS41 KLWX 270259 COR
MTRDMH
METAR KDMH 270254Z AUTO M02/M05 A2974 RMK AO1 SLP072 60001 T10221050
50001





000
SAUS41 KLWX 270255
MTRNAK
METAR KNAK 270254Z AUTO 34009KT 4SM -SN OVC020 M01/M04 A2973 RMK AO2
SNE01B22 SLP068 P0000 60001 I3000 T10111039 50002





    US Dept of Commerce
    National Oceanic and Atmospheric Administration
    National Weather Service
    1325 East West Highway
    Silver Spring, MD 20910
    Page Author: NWS Internet Services Team
Disclaimer
Information Quality
Credits
Glossary
Privacy Policy
Freedom of Information Act (FOIA)
About Us
Career Opportunities